Mundford, United Kingdom
Current Conditions -  °F | °C
As of 4:58 AM on Saturday 20 Dec 2014 (Local Time) from EGUL Reporting Station
Broken Clouds Broken Clouds  
Wind Chill: 33°   Ceiling: 19000
Heat Index: 42°   Visibility: 6mi
Dew Point: 42°   Wind: 20mph
Humidity: 100%   Direction: 250°WSW
Pressure: 30.12"   Gusts: NA
Location:  52.51°N, 0.66°E
Report Text: EGUL 200458Z AUTO 25017KT 9999 FEW050 SCT150 BKN190 05/05 A3012 RMK AO2 SLP203 T00530053
Loading
Personal Weather Stations






























Interactive Weather Map New forecast layout! Learn more

10-Day Weather Forecast

Advertisements
Track Severe Weather on mobile